createdAt,value
2018-10-19T00:25:20.043Z,22.2
2018-10-19T00:26:09.853Z,22.2
2018-10-19T00:27:00.533Z,22.2
2018-10-19T00:27:49.970Z,22.2
2018-10-19T00:28:40.038Z,22.2
2018-10-19T00:29:30.415Z,22.2
2018-10-19T00:30:20.656Z,22.2
2018-10-19T00:31:10.190Z,22.2
2018-10-19T00:32:00.517Z,22.2
2018-10-19T00:32:50.040Z,22.2
2018-10-19T00:33:40.388Z,22.2
2018-10-19T00:34:30.440Z,22.2
2018-10-19T00:35:20.836Z,22.2
2018-10-19T00:36:10.613Z,22.2
2018-10-19T00:37:00.352Z,22.2
2018-10-19T00:37:50.680Z,22.2
2018-10-19T00:38:40.740Z,22.1
2018-10-19T00:39:30.760Z,22.2
2018-10-19T00:40:20.538Z,22.2
2018-10-19T00:41:11.155Z,22.2
2018-10-19T00:42:01.005Z,22.2
2018-10-19T00:42:50.488Z,22.1
2018-10-19T00:43:40.544Z,22.2
2018-10-19T00:44:31.166Z,22.2
2018-10-19T00:45:21.252Z,22.2
2018-10-19T00:46:11.587Z,22.2
2018-10-19T00:47:01.824Z,22.1
2018-10-19T00:47:51.466Z,22.2
2018-10-19T00:48:41.746Z,22.2
2018-10-19T00:49:31.569Z,22.1
2018-10-19T00:50:21.614Z,22.1
2018-10-19T00:51:12.409Z,22.1
2018-10-19T00:52:01.973Z,22.1
2018-10-19T00:52:51.797Z,22.1
2018-10-19T00:53:41.284Z,22.1
2018-10-19T00:54:32.197Z,22.1
2018-10-19T00:55:21.678Z,22.1
2018-10-19T00:56:12.059Z,22.1
2018-10-19T00:57:02.786Z,22.1
2018-10-19T00:57:52.151Z,22.1
2018-10-19T00:58:42.236Z,22.1
2018-10-19T00:59:32.298Z,22.1
2018-10-19T01:00:22.399Z,22.1
2018-10-19T01:01:12.381Z,22.1
2018-10-19T01:02:03.077Z,22.1
2018-10-19T01:02:52.265Z,22.1
2018-10-19T01:03:42.614Z,22.1
2018-10-19T01:04:32.668Z,22.1
2018-10-19T01:05:22.448Z,22.1
2018-10-19T01:06:13.085Z,22.1
2018-10-19T01:07:02.842Z,22.1
2018-10-19T01:07:53.213Z,22.1
2018-10-19T01:08:43.267Z,22.1
2018-10-19T01:09:32.765Z,22.1
2018-10-19T01:10:23.352Z,22.1
2018-10-19T01:11:14.601Z,22.1
2018-10-19T01:12:03.195Z,22.1
2018-10-19T01:12:53.265Z,22.1
2018-10-19T01:13:43.642Z,22.1
2018-10-19T01:14:33.141Z,22.1
2018-10-19T01:15:23.533Z,22.1
2018-10-19T01:16:13.830Z,22.1
2018-10-19T01:17:04.503Z,22.1
2018-10-19T01:17:53.943Z,22.1
2018-10-19T01:18:43.480Z,22.1
2018-10-19T01:19:33.779Z,22.1
2018-10-19T01:20:23.856Z,22.1
2018-10-19T01:21:14.839Z,22.1
2018-10-19T01:22:04.219Z,22.1
2018-10-19T01:22:53.767Z,22.1
2018-10-19T01:23:44.093Z,22.1
2018-10-19T01:24:34.151Z,22.1
2018-10-19T01:25:24.514Z,22.1
2018-10-19T01:26:14.279Z,22.1
2018-10-19T01:27:04.517Z,22.1
2018-10-19T01:27:54.398Z,22.1
2018-10-19T01:28:44.457Z,22.1
2018-10-19T01:29:34.537Z,22.1
2018-10-19T01:30:24.892Z,22.1
2018-10-19T01:31:14.954Z,22.1
2018-10-19T01:32:05.206Z,22.1
2018-10-19T01:32:55.197Z,22.1
2018-10-19T01:33:44.835Z,22.1
2018-10-19T01:34:34.902Z,22
2018-10-19T01:35:24.709Z,22
2018-10-19T01:36:15.015Z,22.1
2018-10-19T01:37:04.801Z,22.1
2018-10-19T01:37:55.542Z,22
2018-10-19T01:38:45.449Z,22
2018-10-19T01:39:35.299Z,22.1
2018-10-19T01:40:25.441Z,22.1
2018-10-19T01:41:15.668Z,22
2018-10-19T01:42:05.709Z,22.1
2018-10-19T01:42:55.800Z,22
2018-10-19T01:43:45.283Z,22
2018-10-19T01:44:34.790Z,22
2018-10-19T01:45:25.970Z,22.1
2018-10-19T01:46:15.749Z,22
2018-10-19T01:47:06.359Z,22
2018-10-19T01:47:55.586Z,22
2018-10-19T01:48:45.950Z,22
2018-10-19T01:49:35.997Z,22
2018-10-19T01:50:25.491Z,22
2018-10-19T01:51:16.719Z,22
2018-10-19T01:52:06.804Z,22
2018-10-19T01:52:56.502Z,22
2018-10-19T01:53:46.555Z,22
2018-10-19T01:54:36.384Z,22
2018-10-19T01:55:26.720Z,22
2018-10-19T01:56:16.762Z,22
2018-10-19T01:57:07.133Z,22
2018-10-19T01:57:56.635Z,22
2018-10-19T01:58:46.427Z,22
2018-10-19T01:59:37.070Z,22
2018-10-19T02:00:27.115Z,22
2018-10-19T02:01:17.134Z,22
2018-10-19T02:02:07.466Z,21.9
2018-10-19T02:02:56.919Z,22
2018-10-19T02:03:47.102Z,21.9
2018-10-19T02:04:37.769Z,22
2018-10-19T02:05:27.265Z,22
2018-10-19T02:06:17.564Z,22
2018-10-19T02:07:07.313Z,21.9
2018-10-19T02:07:57.411Z,21.9
2018-10-19T02:08:47.721Z,22
2018-10-19T02:09:37.776Z,21.9
2018-10-19T02:10:27.519Z,21.9
2018-10-19T02:11:17.499Z,22
2018-10-19T02:12:07.407Z,21.9
2018-10-19T02:12:57.993Z,21.9
2018-10-19T02:13:47.524Z,21.9
2018-10-19T02:14:37.295Z,21.9
2018-10-19T02:15:27.923Z,21.9
2018-10-19T02:16:17.718Z,21.9
2018-10-19T02:17:08.710Z,21.9
2018-10-19T02:17:58.139Z,21.9
2018-10-19T02:18:48.460Z,21.9
2018-10-19T02:19:37.960Z,21.9
2018-10-19T02:20:28.281Z,21.9
2018-10-19T02:21:18.113Z,21.9
2018-10-19T02:22:08.447Z,21.9
2018-10-19T02:22:59.035Z,21.9
2018-10-19T02:23:48.804Z,21.9
2018-10-19T02:24:38.604Z,21.9
2018-10-19T02:25:28.345Z,21.9
2018-10-19T02:26:18.688Z,21.9
2018-10-19T02:27:10.132Z,21.9
2018-10-19T02:27:58.887Z,21.9
2018-10-19T02:28:48.648Z,21.9
2018-10-19T02:29:39.233Z,21.9
2018-10-19T02:30:28.783Z,21.9
2018-10-19T02:31:18.573Z,21.9
2018-10-19T02:32:09.506Z,21.9
2018-10-19T02:33:00.089Z,21.9
2018-10-19T02:33:48.698Z,21.9
2018-10-19T02:34:39.033Z,21.9
2018-10-19T02:35:29.147Z,21.9
2018-10-19T02:36:19.767Z,21.9
2018-10-19T02:37:09.245Z,21.9
2018-10-19T02:37:59.597Z,21.9
2018-10-19T02:38:49.969Z,21.9
2018-10-19T02:39:40.010Z,21.9
2018-10-19T02:40:30.009Z,21.9
2018-10-19T02:41:20.708Z,21.9
2018-10-19T02:42:09.602Z,21.9
2018-10-19T02:42:59.974Z,21.9
2018-10-19T02:43:49.723Z,21.9
2018-10-19T02:44:40.084Z,21.9
2018-10-19T02:45:30.141Z,21.9
2018-10-19T02:46:20.507Z,21.9
2018-10-19T02:47:11.487Z,21.9
2018-10-19T02:48:00.582Z,21.9
2018-10-19T02:48:50.683Z,21.9
2018-10-19T02:49:39.885Z,21.9
2018-10-19T02:50:30.497Z,21.9
2018-10-19T02:51:21.383Z,21.9
2018-10-19T02:52:10.919Z,21.9
2018-10-19T02:53:01.110Z,21.9
2018-10-19T02:53:51.034Z,21.9
2018-10-19T02:54:40.804Z,21.9
2018-10-19T02:55:30.874Z,21.9
2018-10-19T02:56:20.364Z,21.9
2018-10-19T02:57:11.652Z,21.9
2018-10-19T02:58:01.583Z,21.8
2018-10-19T02:58:51.099Z,21.9
2018-10-19T02:59:40.898Z,21.9
2018-10-19T03:00:30.969Z,21.9
2018-10-19T03:01:21.039Z,21.9
2018-10-19T03:02:11.670Z,21.9
2018-10-19T03:03:01.793Z,21.9
2018-10-19T03:03:52.070Z,21.9
2018-10-19T03:04:41.566Z,21.9
2018-10-19T03:05:31.621Z,21.9
2018-10-19T03:06:21.678Z,21.9
2018-10-19T03:07:12.066Z,21.9
2018-10-19T03:08:02.122Z,21.9
2018-10-19T03:08:52.271Z,21.9
2018-10-19T03:09:41.934Z,21.8
2018-10-19T03:10:32.309Z,21.9
2018-10-19T03:11:22.667Z,21.9
2018-10-19T03:12:12.477Z,21.9
2018-10-19T03:13:02.195Z,21.9
2018-10-19T03:13:52.491Z,21.9
2018-10-19T03:14:42.581Z,21.8
2018-10-19T03:15:32.139Z,21.9
2018-10-19T03:16:23.038Z,21.8
2018-10-19T03:17:13.668Z,21.8
2018-10-19T03:18:02.601Z,21.8
2018-10-19T03:18:53.166Z,21.9
2018-10-19T03:19:43.008Z,21.8
2018-10-19T03:20:32.764Z,21.8
2018-10-19T03:21:22.813Z,21.9
2018-10-19T03:22:12.327Z,21.8
2018-10-19T03:23:03.816Z,21.9
2018-10-19T03:23:53.018Z,21.8
2018-10-19T03:24:43.036Z,21.8
2018-10-19T03:25:33.904Z,21.9
2018-10-19T03:26:23.521Z,21.9
2018-10-19T03:27:13.926Z,21.9
2018-10-19T03:28:03.280Z,21.9
2018-10-19T03:28:53.466Z,21.9
2018-10-19T03:29:43.783Z,22
2018-10-19T03:30:33.482Z,22
2018-10-19T03:31:23.907Z,22
2018-10-19T03:32:13.340Z,22
2018-10-19T03:33:04.232Z,22
2018-10-19T03:33:53.790Z,22
2018-10-19T03:34:44.316Z,21.9
2018-10-19T03:35:33.587Z,21.9
2018-10-19T03:36:23.604Z,21.9
2018-10-19T03:37:14.001Z,21.9
2018-10-19T03:38:03.487Z,21.9
2018-10-19T03:38:54.203Z,21.9
2018-10-19T03:39:44.184Z,21.9
2018-10-19T03:40:34.512Z,21.9
2018-10-19T03:41:24.028Z,21.9
2018-10-19T03:42:13.780Z,21.9
2018-10-19T03:43:04.120Z,21.9
2018-10-19T03:43:54.463Z,21.9
2018-10-19T03:44:44.835Z,21.9
2018-10-19T03:45:34.588Z,21.9
2018-10-19T03:46:24.643Z,21.9
2018-10-19T03:47:15.176Z,21.9
2018-10-19T03:48:04.839Z,21.9
2018-10-19T03:48:54.585Z,21.9
2018-10-19T03:49:45.195Z,21.9
2018-10-19T03:50:35.253Z,21.9
2018-10-19T03:51:25.046Z,21.9
2018-10-19T03:52:15.048Z,21.9
2018-10-19T03:53:06.135Z,21.9
2018-10-19T03:53:55.268Z,21.9
2018-10-19T03:54:44.975Z,21.9
2018-10-19T03:55:35.562Z,21.9
2018-10-19T03:56:25.658Z,21.9
2018-10-19T03:57:16.667Z,21.9
2018-10-19T03:58:05.787Z,21.9
2018-10-19T03:58:55.425Z,21.9
2018-10-19T03:59:45.952Z,21.9
2018-10-19T04:00:35.395Z,21.8
2018-10-19T04:01:26.063Z,21.9
2018-10-19T04:02:16.119Z,21.9
2018-10-19T04:03:06.884Z,21.9
2018-10-19T04:03:55.678Z,21.9
2018-10-19T04:04:46.020Z,21.9
2018-10-19T04:05:36.317Z,21.8
2018-10-19T04:06:26.144Z,21.8
2018-10-19T04:07:16.452Z,21.9
2018-10-19T04:08:06.241Z,21.8
2018-10-19T04:08:56.174Z,21.9
2018-10-19T04:09:46.100Z,21.8
2018-10-19T04:10:36.689Z,21.8
2018-10-19T04:11:26.482Z,21.9
2018-10-19T04:12:16.826Z,21.8
2018-10-19T04:13:06.317Z,21.8
2018-10-19T04:13:56.995Z,21.8
2018-10-19T04:14:46.445Z,21.8
2018-10-19T04:15:37.104Z,21.8
2018-10-19T04:16:26.834Z,21.8
2018-10-19T04:17:17.627Z,21.8
2018-10-19T04:18:07.246Z,21.8
2018-10-19T04:18:57.065Z,21.8
2018-10-19T04:19:47.127Z,21.8
2018-10-19T04:20:37.467Z,21.8
2018-10-19T04:21:27.770Z,21.8
2018-10-19T04:22:17.559Z,21.8
2018-10-19T04:23:08.592Z,21.8
2018-10-19T04:23:57.439Z,21.8
2018-10-19T04:24:47.796Z,21.8
2018-10-19T04:25:37.811Z,21.8
2018-10-19T04:26:28.402Z,21.8
2018-10-19T04:27:18.607Z,21.8
2018-10-19T04:28:07.974Z,21.8
2018-10-19T04:28:58.418Z,21.8
2018-10-19T04:29:48.154Z,21.8
2018-10-19T04:30:37.916Z,21.8
2018-10-19T04:31:28.278Z,21.8
2018-10-19T04:32:17.709Z,21.8
2018-10-19T04:33:09.149Z,21.8
2018-10-19T04:33:57.859Z,21.8
2018-10-19T04:34:48.495Z,21.8
2018-10-19T04:35:38.281Z,21.8
2018-10-19T04:36:28.581Z,21.8
2018-10-19T04:54:39.958Z,21.7
2018-10-19T04:55:30.289Z,21.8
2018-10-19T04:56:19.493Z,21.8
2018-10-19T04:57:11.363Z,21.7
2018-10-19T04:58:00.173Z,21.7
2018-10-19T04:58:50.242Z,21.7
2018-10-19T04:59:40.289Z,21.7
2018-10-19T05:00:30.349Z,21.7
2018-10-19T05:01:20.712Z,21.7
2018-10-19T05:02:10.835Z,21.7
2018-10-19T05:03:01.038Z,21.7
2018-10-19T05:03:50.585Z,21.7
2018-10-19T05:04:41.407Z,21.7
2018-10-19T05:05:32.647Z,21.7
2018-10-19T05:06:21.421Z,21.7
2018-10-19T05:07:10.919Z,21.7
2018-10-19T05:08:01.964Z,21.7
2018-10-19T05:08:50.976Z,21.6
2018-10-19T05:09:40.763Z,21.7
2018-10-19T05:10:31.152Z,21.7
2018-10-19T05:11:22.252Z,21.7
2018-10-19T05:12:11.238Z,21.7
2018-10-19T05:13:00.690Z,21.6
2018-10-19T05:13:51.620Z,21.7
2018-10-19T05:14:41.680Z,21.6
2018-10-19T05:15:31.252Z,21.7
2018-10-19T05:16:21.877Z,21.7
2018-10-19T05:17:12.890Z,21.6
2018-10-19T05:18:01.778Z,21.7
2018-10-19T05:18:51.951Z,21.6
2018-10-19T05:19:41.795Z,21.6
2018-10-19T05:20:32.157Z,21.6
2018-10-19T05:21:21.941Z,21.6
2018-10-19T05:22:12.243Z,21.6
2018-10-19T05:23:02.820Z,21.6
2018-10-19T05:23:52.403Z,21.6
2018-10-19T05:24:43.104Z,21.6
2018-10-19T05:25:32.528Z,21.6
2018-10-19T05:26:22.372Z,21.6
2018-10-19T05:27:12.364Z,21.6
2018-10-19T05:28:02.272Z,21.6
2018-10-19T05:28:52.570Z,21.6
2018-10-19T05:29:42.380Z,21.6
2018-10-19T05:30:32.969Z,21.6
2018-10-19T05:31:23.042Z,21.6
2018-10-19T05:32:13.462Z,21.6
2018-10-19T05:33:03.453Z,21.6
2018-10-19T05:33:52.879Z,21.6
2018-10-19T05:34:43.166Z,21.6
2018-10-19T05:35:33.267Z,21.6
2018-10-19T05:36:23.314Z,21.6
2018-10-19T05:37:13.387Z,21.6
2018-10-19T05:38:03.453Z,21.6
2018-10-19T05:38:52.976Z,21.6
2018-10-19T05:39:43.576Z,21.6
2018-10-19T05:40:33.073Z,21.6
2018-10-19T05:41:23.410Z,21.6
2018-10-19T05:42:13.813Z,21.6
2018-10-19T05:43:03.856Z,21.6
2018-10-19T05:43:53.684Z,21.6
2018-10-19T05:44:44.001Z,21.6
2018-10-19T05:45:33.116Z,21.6
2018-10-19T05:46:23.759Z,21.6
2018-10-19T05:47:15.119Z,21.6
2018-10-19T05:48:03.873Z,21.6
2018-10-19T05:48:53.931Z,21.6
2018-10-19T05:49:43.749Z,21.6
2018-10-19T05:50:33.805Z,21.6
2018-10-19T05:51:24.728Z,21.6
2018-10-19T05:52:14.757Z,21.6
2018-10-19T05:53:05.149Z,21.6
2018-10-19T05:53:54.572Z,21.6
2018-10-19T05:54:44.033Z,21.6
2018-10-19T05:55:33.825Z,21.6
2018-10-19T05:56:24.505Z,21.6
2018-10-19T05:57:14.821Z,21.6
2018-10-19T05:58:04.325Z,21.6
2018-10-19T05:58:54.875Z,21.6
2018-10-19T05:59:44.693Z,21.6
2018-10-19T06:00:34.507Z,21.6
2018-10-19T06:01:24.557Z,21.6
2018-10-19T06:02:15.670Z,21.6
2018-10-19T06:03:05.023Z,21.6
2018-10-19T06:03:55.061Z,21.6
2018-10-19T06:04:45.147Z,21.6
2018-10-19T06:05:34.922Z,21.6
2018-10-19T06:06:25.267Z,21.6
2018-10-19T06:07:14.978Z,21.6
2018-10-19T06:08:05.636Z,21.6
2018-10-19T06:08:55.386Z,21.6
2018-10-19T06:09:45.784Z,21.6
2018-10-19T06:10:35.767Z,21.6
2018-10-19T06:11:25.287Z,21.6
2018-10-19T06:12:15.150Z,21.6
2018-10-19T06:13:05.969Z,21.6
2018-10-19T06:13:56.299Z,21.6
2018-10-19T06:14:46.115Z,21.6
2018-10-19T06:15:35.885Z,21.6
2018-10-19T06:16:26.255Z,21.6
2018-10-19T06:17:16.982Z,21.6
2018-10-19T06:18:06.386Z,21.6
2018-10-19T06:18:56.121Z,21.6
2018-10-19T06:19:46.484Z,21.6
2018-10-19T06:20:36.779Z,21.6
2018-10-19T06:21:26.322Z,21.6
2018-10-19T06:22:16.563Z,21.6
2018-10-19T06:23:07.161Z,21.6
2018-10-19T06:23:56.487Z,21.6
2018-10-19T06:24:46.570Z,21.6
2018-10-19T06:25:36.345Z,21.6
2018-10-19T06:26:27.583Z,21.6
2018-10-19T06:27:17.023Z,21.6
2018-10-19T06:28:06.834Z,21.6
2018-10-19T06:28:57.415Z,21.6
2018-10-19T06:29:46.928Z,21.6
2018-10-19T06:30:36.702Z,21.6
2018-10-19T06:31:27.329Z,21.6
2018-10-19T06:32:17.553Z,21.6
2018-10-19T06:33:07.135Z,21.6
2018-10-19T06:33:57.527Z,21.6
2018-10-19T06:34:47.318Z,21.6
2018-10-19T06:35:37.351Z,21.6
2018-10-19T06:36:27.689Z,21.6
2018-10-19T06:37:17.759Z,21.6
2018-10-19T06:38:07.566Z,21.6
2018-10-19T06:38:57.899Z,21.6
2018-10-19T06:39:47.407Z,21.6
2018-10-19T06:40:38.164Z,21.6
2018-10-19T06:41:28.073Z,21.6
2018-10-19T06:42:18.159Z,21.6
2018-10-19T06:43:07.356Z,21.6
2018-10-19T06:43:58.548Z,21.6
2018-10-19T06:44:48.318Z,21.6
2018-10-19T06:45:38.401Z,21.7
2018-10-19T06:46:28.309Z,21.6
2018-10-19T06:47:19.323Z,21.6
2018-10-19T06:48:08.592Z,21.6
2018-10-19T06:48:59.085Z,21.6
2018-10-19T06:49:48.472Z,21.6
2018-10-19T06:50:38.513Z,21.6
2018-10-19T06:51:28.854Z,21.6
2018-10-19T06:52:18.882Z,21.6
2018-10-19T06:53:09.733Z,21.6
2018-10-19T06:53:58.435Z,21.6
2018-10-19T06:54:48.491Z,21.6
2018-10-19T06:55:38.574Z,21.6
2018-10-19T06:56:29.166Z,21.6
2018-10-19T06:57:18.982Z,21.6
2018-10-19T06:58:09.570Z,21.6
2018-10-19T06:59:00.191Z,21.6
2018-10-19T06:59:49.221Z,21.6
2018-10-19T07:00:39.448Z,21.6
2018-10-19T07:01:28.935Z,21.6
2018-10-19T07:02:19.656Z,21.6
2018-10-19T07:03:09.645Z,21.6
2018-10-19T07:03:59.445Z,21.6
2018-10-19T07:04:49.797Z,21.6
2018-10-19T07:05:40.501Z,21.6
2018-10-19T07:06:29.662Z,21.6
2018-10-19T07:07:19.687Z,21.6
2018-10-19T07:08:11.310Z,21.6
2018-10-19T07:08:59.809Z,21.6
2018-10-19T07:09:50.145Z,21.6
2018-10-19T07:10:39.662Z,21.6
2018-10-19T07:11:29.690Z,21.6
2018-10-19T07:12:20.610Z,21.6
2018-10-19T07:13:10.117Z,21.6
2018-10-19T07:14:00.825Z,21.6
2018-10-19T07:14:50.261Z,21.6
2018-10-19T07:15:40.412Z,21.6
2018-10-19T07:16:30.667Z,21.6
2018-10-19T07:17:20.765Z,21.6
2018-10-19T07:18:10.664Z,21.6
2018-10-19T07:19:01.304Z,21.6
2018-10-19T07:19:50.654Z,21.6
2018-10-19T07:20:40.472Z,21.6
2018-10-19T07:21:31.244Z,21.6
2018-10-19T07:22:20.798Z,21.6
2018-10-19T07:23:11.074Z,21.6
2018-10-19T07:24:00.966Z,21.6
2018-10-19T07:24:51.342Z,21.6
2018-10-19T07:25:40.788Z,21.6
2018-10-19T07:26:31.379Z,21.6
2018-10-19T07:27:21.436Z,21.6
2018-10-19T07:28:11.501Z,21.6
2018-10-19T07:29:01.216Z,21.6
2018-10-19T07:29:51.629Z,21.6
2018-10-19T07:30:41.419Z,21.6
2018-10-19T07:31:31.785Z,21.6
2018-10-19T07:32:21.568Z,21.6
2018-10-19T07:33:11.899Z,21.6
2018-10-19T07:34:01.982Z,21.6
2018-10-19T07:34:51.262Z,21.6
2018-10-19T07:35:41.583Z,21.6
2018-10-19T07:36:32.962Z,21.6
2018-10-19T07:37:22.480Z,21.6
2018-10-19T07:38:12.800Z,21.6
2018-10-19T07:39:02.063Z,21.6
2018-10-19T07:39:51.875Z,21.6
2018-10-19T07:40:42.483Z,21.6
2018-10-19T07:41:32.225Z,21.6
2018-10-19T07:42:23.967Z,21.6
2018-10-19T07:43:12.617Z,21.6
2018-10-19T07:44:03.477Z,21.6
2018-10-19T07:44:52.474Z,21.8
2018-10-19T07:45:42.237Z,21.4
2018-10-19T07:46:32.280Z,35.3
2018-10-19T07:47:23.133Z,45.1
2018-10-19T07:48:15.189Z,47
2018-10-19T07:49:02.751Z,46.5
2018-10-19T07:49:52.591Z,46.1
2018-10-19T07:50:43.182Z,45.6
2018-10-19T07:51:32.948Z,45.1
2018-10-19T07:52:23.011Z,44.5
2018-10-19T07:53:13.222Z,44
2018-10-19T07:54:04.305Z,43.5
2018-10-19T07:54:53.508Z,43
2018-10-19T07:55:42.980Z,42.5
2018-10-19T07:56:33.313Z,42.1
2018-10-19T07:57:23.382Z,41.6
2018-10-19T07:58:13.737Z,41.1
2018-10-19T07:59:04.137Z,40.6
2018-10-19T07:59:53.833Z,40.2
2018-10-19T08:00:44.238Z,39.8
2018-10-19T08:01:33.997Z,39.4
2018-10-19T08:02:24.027Z,39
2018-10-19T08:03:14.077Z,38.6
2018-10-19T08:04:04.190Z,38.2
2018-10-19T08:04:54.104Z,37.8
2018-10-19T08:05:43.698Z,37.4
2018-10-19T08:06:34.344Z,37.1
2018-10-19T08:07:24.399Z,36.8
2018-10-19T08:08:14.906Z,36.4
2018-10-19T08:09:03.762Z,36.1
2018-10-19T08:09:54.544Z,35.8
2018-10-19T08:10:44.707Z,35.5
2018-10-19T08:11:35.524Z,35.3
2018-10-19T08:12:24.769Z,36.9
2018-10-19T08:13:14.851Z,39.8
2018-10-19T08:14:05.476Z,48.9
2018-10-19T08:14:54.398Z,51
2018-10-19T08:15:45.058Z,50.4
2018-10-19T08:16:35.084Z,48.3
2018-10-19T08:17:24.886Z,45.6
2018-10-19T08:18:15.206Z,44.3
2018-10-19T08:19:05.276Z,43.6
2018-10-19T08:19:55.170Z,43.1
2018-10-19T08:20:45.387Z,42.8
2018-10-19T08:21:35.165Z,42.3
2018-10-19T08:22:25.521Z,41.8
2018-10-19T08:23:16.413Z,41.4
2018-10-19T08:24:05.632Z,41.4
2018-10-19T08:24:55.693Z,46.4
2018-10-19T08:25:45.760Z,52.3
2018-10-19T08:26:35.844Z,53.8
2018-10-19T08:27:27.095Z,54.1
2018-10-19T08:28:15.945Z,52.5
2018-10-19T08:29:06.577Z,50.1
2018-10-19T08:29:55.514Z,48.2
2018-10-19T08:30:45.852Z,48.4
2018-10-19T08:31:35.915Z,49.8
2018-10-19T08:32:26.290Z,51.3
2018-10-19T08:33:16.282Z,52.3
2018-10-19T08:34:06.377Z,52.6
2018-10-19T08:34:56.704Z,52.3
2018-10-19T08:35:46.232Z,51.6
2018-10-19T08:36:36.622Z,51.3
2018-10-19T08:37:25.989Z,51.4
2018-10-19T08:39:06.806Z,52.5
2018-10-19T08:39:56.830Z,52.9
2018-10-19T08:40:46.928Z,53.2
2018-10-19T08:41:37.523Z,53.2
2018-10-19T08:42:27.012Z,53.1
2018-10-19T08:43:18.248Z,53.1
2018-10-19T08:44:06.584Z,53.2
2018-10-19T08:44:57.217Z,53.4
2018-10-19T08:45:46.749Z,53.7
2018-10-19T08:46:37.081Z,53.9
2018-10-19T08:47:26.950Z,54.1
2018-10-19T08:48:16.883Z,54.3
2018-10-19T08:49:07.993Z,54.3
2018-10-19T08:49:57.060Z,54.4
2018-10-19T08:50:46.644Z,54.6
2018-10-19T08:51:37.202Z,54.8
2018-10-19T08:52:27.474Z,55
2018-10-19T09:08:58.057Z,57.6
2018-10-19T09:09:48.203Z,57.5
2018-10-19T09:10:37.999Z,57.4
2018-10-19T09:11:28.929Z,57.4
2018-10-19T09:12:18.351Z,57.6
2018-10-19T09:13:08.514Z,57.9
2018-10-19T09:13:58.454Z,58.3
2018-10-19T09:15:38.318Z,58.8
2018-10-19T09:16:28.402Z,58.8
2018-10-19T09:17:19.629Z,58.9
2018-10-19T09:18:08.608Z,58.9
2018-10-19T09:18:59.305Z,59.1
2018-10-19T09:19:48.299Z,59.3
2018-10-19T09:20:38.382Z,59.6
2018-10-19T09:21:29.002Z,59.8
2018-10-19T09:22:19.084Z,60
2018-10-19T09:23:09.758Z,60.1
2018-10-19T09:23:59.179Z,60.3
2018-10-19T09:24:48.482Z,60.4
2018-10-19T09:25:38.815Z,60.5
2018-10-19T09:26:29.080Z,60.7
2018-10-19T09:27:19.927Z,60.9
2018-10-19T09:28:09.496Z,61
2018-10-19T09:28:59.963Z,61.1
2018-10-19T09:29:49.132Z,61.3
2018-10-19T09:30:39.423Z,61.3
2018-10-19T09:31:29.460Z,61.4
2018-10-19T09:32:19.874Z,61.4
2018-10-19T09:33:10.507Z,61.6
2018-10-19T09:33:59.931Z,61.8
2018-10-19T09:34:50.002Z,61.9
2018-10-19T09:35:41.084Z,61.9
2018-10-19T09:36:32.516Z,62
2018-10-19T09:37:19.615Z,62.1
2018-10-19T09:38:09.973Z,62.1
2018-10-19T09:39:00.280Z,62.3
2018-10-19T09:39:50.344Z,62.4
2018-10-19T09:40:40.576Z,62.5
2018-10-19T09:41:31.129Z,62.6
2018-10-19T09:42:20.631Z,62.8
2018-10-19T09:43:10.775Z,62.9
2018-10-19T09:44:00.941Z,62.9
2018-10-19T09:44:50.811Z,63
2018-10-19T09:45:40.818Z,63.1
2018-10-19T09:46:31.183Z,63.2
2018-10-19T09:47:21.232Z,63.3
2018-10-19T09:48:11.004Z,63.4
2018-10-19T09:49:01.340Z,63.4
2018-10-19T09:49:51.618Z,63.5
2018-10-19T09:50:41.165Z,63.6
2018-10-19T09:51:31.488Z,63.6
2018-10-19T09:52:21.036Z,63.7
2018-10-19T09:53:12.004Z,63.7
2018-10-19T09:54:00.856Z,63.8
2018-10-19T09:54:50.894Z,63.8
2018-10-19T09:55:41.245Z,63.9
2018-10-19T09:56:31.620Z,63.9
2018-10-19T09:57:21.688Z,64
2018-10-19T09:58:11.717Z,64.1
2018-10-19T09:59:01.940Z,64.1
2018-10-19T09:59:51.578Z,64.1
2018-10-19T10:00:41.920Z,64.1
2018-10-19T10:01:32.025Z,64.2
2018-10-19T10:02:21.811Z,64.2
2018-10-19T10:03:13.238Z,64.3
2018-10-19T10:04:02.277Z,64.4
2018-10-19T10:04:52.275Z,64.4
2018-10-19T10:05:42.345Z,64.4
2018-10-19T10:06:32.424Z,64.4
2018-10-19T10:07:21.866Z,64.5
2018-10-19T10:08:12.510Z,64.4
2018-10-19T10:09:03.084Z,64.5
2018-10-19T10:09:52.634Z,64.6
2018-10-19T10:10:42.667Z,64.6
2018-10-19T10:11:32.550Z,64.6
2018-10-19T10:12:22.861Z,64.6
2018-10-19T10:13:13.913Z,64.7
2018-10-19T10:14:02.378Z,64.8
2018-10-19T10:14:54.214Z,64.8
2018-10-19T10:15:43.562Z,64.9
2018-10-19T10:16:33.231Z,64.9
2018-10-19T10:17:23.204Z,64.9
2018-10-19T10:18:12.381Z,64.9
2018-10-19T10:19:03.454Z,65
2018-10-19T10:19:53.365Z,65.1
2018-10-19T10:20:43.675Z,65.1
2018-10-19T10:21:32.635Z,65.1
2018-10-19T10:22:23.264Z,65.1
2018-10-19T10:23:13.307Z,65.1
2018-10-19T10:24:03.686Z,65.1
2018-10-19T10:24:53.894Z,65.2
2018-10-19T10:25:43.458Z,65.2
2018-10-19T10:26:33.566Z,65.2
2018-10-19T10:27:23.623Z,65.2
2018-10-19T10:28:14.823Z,65.3
2018-10-19T10:29:04.043Z,65.3
2018-10-19T10:29:54.074Z,65.3
2018-10-19T10:30:43.875Z,65.4
2018-10-19T10:31:34.243Z,65.4
2018-10-19T10:32:24.927Z,65.4
2018-10-19T10:33:14.069Z,65.5
2018-10-19T10:34:04.788Z,65.6
2018-10-19T10:34:54.461Z,65.6
2018-10-19T10:35:44.258Z,65.6
2018-10-19T10:36:34.590Z,65.6
2018-10-19T10:37:24.370Z,65.7
2018-10-19T10:38:14.450Z,65.7
2018-10-19T10:39:06.529Z,65.8
2018-10-19T10:39:54.979Z,65.9
2018-10-19T10:40:44.905Z,65.9
2018-10-19T10:41:34.976Z,66.1
2018-10-19T10:42:24.765Z,66.1
2018-10-19T10:43:15.367Z,66.3
2018-10-19T10:44:04.597Z,66.3
2018-10-19T10:44:55.219Z,66.4
2018-10-19T10:45:45.007Z,66.6
2018-10-19T10:46:35.360Z,66.6
2018-10-19T10:47:25.134Z,66.6
2018-10-19T10:48:14.600Z,66.6
2018-10-19T10:49:05.698Z,66.7
2018-10-19T10:49:55.311Z,66.7
2018-10-19T10:50:45.382Z,66.7
2018-10-19T10:51:35.140Z,66.5
2018-10-19T10:52:25.748Z,66.2
2018-10-19T10:53:15.276Z,65.8
2018-10-19T10:54:05.350Z,65.4
2018-10-19T10:54:56.216Z,65.1
2018-10-19T10:55:46.152Z,64.8
2018-10-19T10:56:36.073Z,64.6
2018-10-19T10:57:25.852Z,64.6
2018-10-19T10:58:16.618Z,65
2018-10-19T10:59:06.008Z,65.4
2018-10-19T10:59:56.342Z,65.6
2018-10-19T11:00:46.414Z,65.3
2018-10-19T11:01:36.207Z,64.3
2018-10-19T11:02:26.764Z,63.2
2018-10-19T11:03:16.299Z,62.2
2018-10-19T11:04:07.382Z,61.4
2018-10-19T11:04:56.133Z,61.1
2018-10-19T11:05:46.204Z,60.8
2018-10-19T11:06:36.826Z,60.8
2018-10-19T11:07:28.968Z,60.6
2018-10-19T11:08:17.008Z,60.1
2018-10-19T11:09:06.194Z,59.7
2018-10-19T11:09:57.356Z,59.1
2018-10-19T11:10:46.873Z,58.7
2018-10-19T11:11:36.710Z,58.3
2018-10-19T11:12:27.265Z,58
2018-10-19T11:14:07.385Z,57.6
2018-10-19T11:14:56.607Z,57.3
2018-10-19T11:15:47.558Z,57.1
2018-10-19T11:16:37.038Z,56.8
2018-10-19T11:17:27.381Z,56.3
2018-10-19T11:18:17.473Z,55.8
2018-10-19T11:19:07.779Z,55.4
2018-10-19T11:19:56.803Z,54.9
2018-10-19T11:20:47.408Z,54.4
2018-10-19T11:21:37.973Z,54.1
2018-10-19T11:22:28.033Z,53.6
2018-10-19T11:23:18.077Z,52.8
2018-10-19T11:24:09.293Z,52.1
2018-10-19T11:24:58.377Z,51.5
2018-10-19T11:25:47.984Z,51.1
2018-10-19T11:26:38.323Z,50.9
2018-10-19T11:27:28.370Z,50.6
2018-10-19T11:28:18.723Z,50.1
2018-10-19T11:29:08.219Z,50.1
2018-10-19T11:29:58.585Z,51.3
2018-10-19T11:30:49.618Z,57.9
2018-10-19T11:31:38.402Z,60.9
2018-10-19T11:32:28.768Z,61.4
2018-10-19T11:33:18.542Z,60.7
2018-10-19T11:34:09.163Z,59.2
2018-10-19T11:34:58.395Z,57.9
2018-10-19T11:35:49.075Z,57.6
2018-10-19T11:36:39.064Z,58.4
2018-10-19T11:37:28.956Z,59.4
2018-10-19T11:38:18.911Z,60.1
2018-10-19T11:39:09.266Z,60.3
2018-10-19T11:39:59.644Z,60.1
2018-10-19T11:40:49.396Z,59.8
2018-10-19T11:41:39.458Z,59.4
2018-10-19T11:42:29.521Z,59.4
2018-10-19T11:43:20.508Z,59.7
2018-10-19T11:44:09.616Z,60.2
2018-10-19T11:44:59.733Z,60.7
2018-10-19T11:45:49.496Z,61.1
2018-10-19T11:46:39.323Z,61.4
2018-10-19T11:47:29.905Z,61.5
2018-10-19T11:48:19.451Z,61.5
2018-10-19T11:49:10.129Z,61.4
2018-10-19T11:50:00.088Z,61.2
2018-10-19T11:50:49.850Z,61
2018-10-19T11:51:40.227Z,60.6
2018-10-19T11:52:29.688Z,60
2018-10-19T11:53:20.030Z,59.6
2018-10-19T11:54:10.425Z,59.6
2018-10-19T11:55:00.790Z,59.9
2018-10-19T11:55:50.233Z,60.1
2018-10-19T11:56:40.270Z,59.8
2018-10-19T11:57:30.672Z,59.3
2018-10-19T11:58:20.669Z,58.5
2018-10-19T12:00:00.840Z,57.4
2018-10-19T12:01:40.992Z,58.3
2018-10-19T12:02:31.247Z,58.9
2018-10-19T12:03:21.139Z,59.5
2018-10-19T12:04:12.140Z,59.9
2018-10-19T12:05:00.902Z,59.9
2018-10-19T12:05:50.988Z,59.8
2018-10-19T12:06:41.309Z,59.6
2018-10-19T12:07:31.099Z,59.1
2018-10-19T12:08:21.463Z,58.4
2018-10-19T12:09:11.864Z,57.6
2018-10-19T12:10:01.979Z,56.9
2018-10-19T12:10:52.289Z,56.3
2018-10-19T12:11:41.917Z,55.9